Time;durP1;ratioP1;P1;durP2;ratioP2;P2;SDS_P1;SDS_P2;PMS_P1;PMS_P2;Temp;Humidity;BMP_temperature;BMP_pressure;BME280_temperature;BME280_humidity;BME280_pressure;Samples;Min_cycle;Max_cycle;Signal;HPM_P1;HPM_P2
2021/11/22 00:01:23;;;;;;;13.13;8.90;;;;;;;7.72;99.20;97913.09;5082562;28;20039;-60
2021/11/22 00:03:49;;;;;;;14.45;8.95;;;;;;;7.70;98.81;97924.41;5064236;28;20042;-60
2021/11/22 00:06:14;;;;;;;13.65;9.45;;;;;;;7.77;99.13;97936.75;5102640;27;20558;-60
2021/11/22 00:08:40;;;;;;;13.15;8.70;;;;;;;7.75;98.92;97928.34;5070008;28;20575;-61
2021/11/22 00:11:06;;;;;;;12.45;9.50;;;;;;;7.77;99.53;97934.19;5088085;28;20066;-61
2021/11/22 00:13:31;;;;;;;13.20;9.52;;;;;;;7.83;99.09;97931.84;5088112;28;20090;-60
2021/11/22 00:15:57;;;;;;;12.05;8.80;;;;;;;7.81;99.54;97932.91;5083065;28;20031;-60
2021/11/22 00:18:23;;;;;;;13.63;9.35;;;;;;;7.79;99.84;97927.88;5088910;27;20023;-60
2021/11/22 00:20:48;;;;;;;12.65;8.85;;;;;;;7.73;99.83;97925.06;5071840;27;20020;-60
2021/11/22 00:23:14;;;;;;;12.23;9.13;;;;;;;7.71;99.82;97930.38;5068908;28;20031;-61
2021/11/22 00:25:39;;;;;;;12.38;8.65;;;;;;;7.84;98.88;97933.44;5070945;27;20062;-60
2021/11/22 00:28:05;;;;;;;12.13;8.52;;;;;;;7.70;99.26;97902.88;5095383;27;20454;-60
2021/11/22 00:30:30;;;;;;;13.45;9.45;;;;;;;7.74;99.55;97922.34;5093800;27;20059;-60
2021/11/22 00:32:58;;;;;;;13.18;9.00;;;;;;;7.44;99.31;97879.44;5093816;28;20051;-61
2021/11/22 00:35:31;;;;;;;13.75;9.73;;;;;;;7.80;99.42;97926.94;5068352;28;20024;-61
2021/11/22 00:37:57;;;;;;;13.75;9.10;;;;;;;7.74;99.28;97908.56;5090902;28;21514;-60
2021/11/22 00:40:22;;;;;;;14.13;8.52;;;;;;;7.64;98.89;97883.56;5093114;28;20072;-60
2021/11/22 00:42:48;;;;;;;12.50;8.50;;;;;;;7.87;98.87;97925.41;5106112;27;20056;-60
2021/11/22 00:45:15;;;;;;;13.88;9.05;;;;;;;7.76;99.55;97928.19;5094959;28;20085;-60
2021/11/22 00:47:40;;;;;;;14.15;8.98;;;;;;;7.60;99.47;97909.88;5076351;28;20097;-60
2021/11/22 00:50:06;;;;;;;12.20;8.80;;;;;;;7.69;99.84;97932.31;5071873;28;20471;-60
2021/11/22 00:52:32;;;;;;;12.02;8.48;;;;;;;7.73;100.00;97932.84;5074335;28;20078;-60
2021/11/22 00:54:57;;;;;;;13.07;8.55;;;;;;;7.73;100.00;97920.69;5094604;28;21790;-61
2021/11/22 00:57:22;;;;;;;12.35;8.32;;;;;;;7.66;100.00;97917.06;5067908;28;20730;-62
2021/11/22 00:59:49;;;;;;;12.02;8.25;;;;;;;7.66;100.00;97930.81;5099662;28;20031;-61
2021/11/22 01:02:14;;;;;;;11.25;8.07;;;;;;;7.59;100.00;97923.75;5074022;27;20038;-61
2021/11/22 01:04:40;;;;;;;10.70;7.47;;;;;;;7.52;100.00;97926.13;5077303;28;20020;-61
2021/11/22 01:07:05;;;;;;;10.07;7.47;;;;;;;7.45;100.00;97922.47;5098094;27;20110;-61
2021/11/22 01:09:31;;;;;;;10.02;7.00;;;;;;;7.39;100.00;97926.44;5075082;28;20038;-63
2021/11/22 01:11:57;;;;;;;9.75;6.10;;;;;;;7.31;100.00;97913.38;5095772;28;20543;-61
2021/11/22 01:14:23;;;;;;;8.35;5.40;;;;;;;7.34;99.95;97935.53;5068196;28;20050;-61
2021/11/22 01:16:48;;;;;;;8.98;5.65;;;;;;;7.41;99.59;97946.97;5074698;28;20019;-61
2021/11/22 01:19:14;;;;;;;9.80;6.00;;;;;;;7.15;99.96;97911.38;5115543;27;20028;-61
2021/11/22 01:21:39;;;;;;;10.70;6.63;;;;;;;7.34;100.00;97940.72;5083690;28;20614;-60
2021/11/22 01:24:05;;;;;;;11.00;6.47;;;;;;;7.29;100.00;97933.41;5073766;28;20162;-61
2021/11/22 01:26:30;;;;;;;10.82;7.18;;;;;;;7.28;100.00;97948.09;5109009;27;20801;-62
2021/11/22 01:28:56;;;;;;;11.45;7.20;;;;;;;7.08;100.00;97905.13;5078109;28;20032;-61
2021/11/22 01:31:21;;;;;;;9.93;6.85;;;;;;;7.01;100.00;97904.06;5100313;27;20106;-60
2021/11/22 01:33:47;;;;;;;10.55;6.68;;;;;;;7.18;100.00;97944.72;5079814;28;20028;-61
2021/11/22 01:36:13;;;;;;;9.50;6.10;;;;;;;6.95;100.00;97905.44;5075010;28;20509;-61
2021/11/22 01:38:38;;;;;;;10.70;6.03;;;;;;;7.21;100.00;97930.69;5063675;27;20448;-60
2021/11/22 01:41:05;;;;;;;8.93;5.80;;;;;;;7.18;100.00;97938.75;5082539;27;20034;-61
2021/11/22 01:43:32;;;;;;;8.85;5.40;;;;;;;7.16;100.00;97945.81;5081190;27;20462;-61
2021/11/22 01:45:57;;;;;;;8.15;4.82;;;;;;;7.18;100.00;97936.16;5088503;28;20489;-61
2021/11/22 01:48:24;;;;;;;6.97;4.00;;;;;;;6.90;100.00;97900.69;5071898;28;20039;-60
2021/11/22 01:50:49;;;;;;;6.38;3.95;;;;;;;7.12;99.97;97943.50;5077420;27;20036;-61
2021/11/22 01:53:16;;;;;;;6.60;3.67;;;;;;;7.07;100.00;97955.22;5064911;28;20532;-61
2021/11/22 01:55:43;;;;;;;5.80;3.58;;;;;;;7.06;99.80;97946.66;5077526;27;20031;-60
2021/11/22 01:58:09;;;;;;;5.60;3.30;;;;;;;7.10;99.53;97950.59;5066613;28;20725;-62
2021/11/22 02:00:42;;;;;;;5.97;3.00;;;;;;;7.09;98.95;97937.81;5079083;28;20062;-62
2021/11/22 02:03:08;;;;;;;5.15;2.63;;;;;;;7.04;98.74;97945.94;5077012;27;20016;-61
2021/11/22 02:05:34;;;;;;;5.30;2.75;;;;;;;7.07;99.38;97942.28;5092665;27;20140;-61
2021/11/22 02:08:01;;;;;;;5.85;2.97;;;;;;;7.14;98.72;97943.38;5077774;28;20036;-59
2021/11/22 02:10:26;;;;;;;5.43;3.00;;;;;;;6.85;98.26;97900.28;5071936;28;20375;-61
2021/11/22 02:12:52;;;;;;;5.32;2.75;;;;;;;7.06;99.04;97941.50;5084466;27;20031;-61
2021/11/22 02:15:18;;;;;;;5.25;2.50;;;;;;;7.10;99.07;97953.19;5078115;28;20027;-61
2021/11/22 02:17:46;;;;;;;5.60;2.80;;;;;;;6.97;98.99;97928.56;5073153;28;20016;-60
2021/11/22 02:20:14;;;;;;;4.60;2.38;;;;;;;7.04;99.00;97939.97;5080905;28;20360;-60
2021/11/22 02:22:40;;;;;;;5.43;2.67;;;;;;;7.08;99.17;97939.56;5090496;27;20102;-60
2021/11/22 02:25:08;;;;;;;5.07;2.63;;;;;;;7.19;98.77;97943.78;5064294;28;20379;-63
2021/11/22 02:27:34;;;;;;;6.53;2.53;;;;;;;7.15;98.83;97937.22;5072727;28;20058;-59
2021/11/22 02:30:00;;;;;;;4.70;2.35;;;;;;;7.13;98.75;97936.56;5091657;27;20089;-63
2021/11/22 02:32:26;;;;;;;5.82;2.53;;;;;;;6.90;98.77;97895.53;5106874;27;20430;-60
2021/11/22 02:34:51;;;;;;;4.90;2.45;;;;;;;7.13;98.64;97939.94;5096242;27;20536;-61
2021/11/22 02:37:16;;;;;;;5.53;2.65;;;;;;;7.14;98.89;97940.78;5095944;27;20312;-63
2021/11/22 02:39:43;;;;;;;5.20;2.55;;;;;;;7.11;99.31;97941.06;5090607;27;20051;-61
2021/11/22 02:42:29;;;;;;;5.38;2.53;;;;;;;7.14;98.83;97943.38;5061512;28;20130;-62
2021/11/22 02:44:56;;;;;;;5.63;2.92;;;;;;;7.09;99.08;97937.81;5068418;28;20043;-60
2021/11/22 02:47:22;;;;;;;5.35;2.70;;;;;;;7.08;99.15;97942.16;5090037;28;20024;-61
2021/11/22 02:49:48;;;;;;;5.47;2.92;;;;;;;7.09;98.83;97942.97;5107600;27;20054;-60
2021/11/22 02:52:14;;;;;;;5.07;2.72;;;;;;;7.21;99.29;97941.88;5074314;28;20024;-60
2021/11/22 02:54:40;;;;;;;6.55;3.55;;;;;;;7.20;98.35;97947.97;5072065;28;20059;-60
2021/11/22 02:57:06;;;;;;;4.45;2.30;;;;;;;7.11;98.22;97944.44;5088924;27;20035;-59
2021/11/22 02:59:31;;;;;;;5.40;2.45;;;;;;;7.13;98.49;97947.69;5073132;28;20031;-59
2021/11/22 03:01:57;;;;;;;5.20;2.38;;;;;;;7.13;98.32;97942.53;5056600;28;20573;-61
2021/11/22 03:04:33;;;;;;;5.10;2.42;;;;;;;7.19;97.25;97940.34;5062444;27;20035;-61
2021/11/22 03:06:58;;;;;;;4.93;2.10;;;;;;;7.22;97.94;97942.66;5065566;28;20561;-60
2021/11/22 03:09:24;;;;;;;4.90;2.08;;;;;;;7.16;98.38;97944.03;5070153;28;20062;-61
2021/11/22 03:11:49;;;;;;;4.25;1.95;;;;;;;7.13;98.68;97928.81;5089104;28;20314;-61
2021/11/22 03:14:15;;;;;;;5.13;2.20;;;;;;;6.69;98.09;97869.03;5068947;28;20081;-62
2021/11/22 03:16:40;;;;;;;4.03;1.80;;;;;;;7.19;97.81;97935.19;5079017;28;20509;-60
2021/11/22 03:19:06;;;;;;;5.18;2.20;;;;;;;7.27;98.25;97937.91;5089018;27;20059;-62
2021/11/22 03:21:32;;;;;;;4.93;2.20;;;;;;;7.22;98.71;97935.72;5064536;28;20081;-60
2021/11/22 03:23:57;;;;;;;4.47;2.20;;;;;;;7.33;98.02;97942.50;5095431;28;20366;-61
2021/11/22 03:26:23;;;;;;;4.07;1.90;;;;;;;7.39;98.05;97944.53;5086625;27;20115;-62
2021/11/22 03:28:48;;;;;;;4.43;1.70;;;;;;;7.05;98.01;97892.50;5095193;27;20486;-62
2021/11/22 03:31:14;;;;;;;3.83;1.60;;;;;;;7.25;97.65;97930.28;5093215;28;20551;-61
2021/11/22 03:33:41;;;;;;;4.50;1.67;;;;;;;7.31;98.32;97937.47;5097167;27;20053;-62
2021/11/22 03:36:08;;;;;;;4.50;2.10;;;;;;;7.37;98.48;97943.03;5066296;28;20028;-62
2021/11/22 03:38:34;;;;;;;4.07;1.75;;;;;;;7.48;97.89;97950.63;5067626;28;20063;-60
2021/11/22 03:41:01;;;;;;;4.43;2.00;;;;;;;7.30;97.53;97925.50;5103012;27;20055;-61
2021/11/22 03:43:33;;;;;;;4.20;2.00;;;;;;;7.11;97.59;97897.91;5072336;28;20101;-62
2021/11/22 03:45:59;;;;;;;4.28;1.90;;;;;;;7.32;97.96;97953.81;5101325;27;20044;-61
2021/11/22 03:48:25;;;;;;;4.22;2.00;;;;;;;7.19;98.80;97945.53;5086001;28;20066;-61
2021/11/22 03:50:50;;;;;;;4.30;1.90;;;;;;;7.09;98.93;97930.03;5072368;28;20048;-62
2021/11/22 03:53:16;;;;;;;4.40;1.95;;;;;;;7.31;99.22;97965.91;5065608;28;20040;-61
2021/11/22 03:55:42;;;;;;;3.67;1.63;;;;;;;7.35;98.29;97968.22;5085549;27;20812;-61
2021/11/22 03:58:07;;;;;;;4.75;1.92;;;;;;;7.01;98.92;97914.41;5064406;28;20031;-62
2021/11/22 04:00:33;;;;;;;5.13;1.90;;;;;;;7.11;98.77;97928.13;5095519;28;20704;-61
2021/11/22 04:02:58;;;;;;;4.30;1.90;;;;;;;7.32;98.66;97974.50;5072155;28;20024;-61
2021/11/22 04:05:24;;;;;;;4.30;1.77;;;;;;;7.37;98.33;97956.78;5059910;28;20117;-62
2021/11/22 04:07:49;;;;;;;4.05;1.60;;;;;;;7.37;98.33;97967.13;5081779;27;20270;-62
2021/11/22 04:10:15;;;;;;;4.38;1.80;;;;;;;7.35;98.77;97966.44;5072469;28;20055;-62
2021/11/22 04:12:40;;;;;;;4.78;1.70;;;;;;;7.28;99.20;97958.44;5063088;28;20039;-62
2021/11/22 04:15:06;;;;;;;4.50;2.00;;;;;;;7.31;99.15;97965.91;5108368;27;20016;-62
2021/11/22 04:17:32;;;;;;;4.50;2.00;;;;;;;7.30;98.97;97964.28;5063040;28;20802;-62
2021/11/22 04:19:58;;;;;;;4.78;2.00;;;;;;;7.28;99.25;97967.97;5091349;27;20024;-62
2021/11/22 04:22:23;;;;;;;5.15;2.00;;;;;;;6.76;99.29;97884.81;5093792;27;20031;-62
2021/11/22 04:24:48;;;;;;;6.80;2.47;;;;;;;7.03;99.23;97909.94;5067700;27;20106;-62
2021/11/22 04:27:14;;;;;;;4.38;2.13;;;;;;;7.30;98.66;97963.47;5078068;28;20031;-62
2021/11/22 04:29:40;;;;;;;4.82;2.10;;;;;;;7.36;99.24;97970.69;5101715;27;20031;-62
2021/11/22 04:32:08;;;;;;;4.85;2.30;;;;;;;7.34;99.05;97964.84;5090917;28;20032;-62
2021/11/22 04:34:34;;;;;;;5.38;2.20;;;;;;;7.41;99.32;97967.66;5049010;28;20031;-62
2021/11/22 04:36:59;;;;;;;4.85;2.10;;;;;;;7.39;99.03;97964.41;5069863;28;20032;-62
2021/11/22 04:39:25;;;;;;;5.82;2.17;;;;;;;7.10;98.56;97919.56;5074657;28;20030;-61
2021/11/22 04:41:50;;;;;;;5.50;2.53;;;;;;;7.42;98.29;97975.28;5072459;28;20829;-61
2021/11/22 04:44:17;;;;;;;4.57;2.10;;;;;;;7.39;98.82;97974.75;5111878;27;20142;-62
2021/11/22 04:46:42;;;;;;;4.93;1.90;;;;;;;7.33;99.38;97970.94;5069220;28;20020;-62
2021/11/22 04:49:07;;;;;;;4.28;1.90;;;;;;;7.20;99.45;97947.97;5109355;27;20026;-60
2021/11/22 04:51:33;;;;;;;4.20;1.98;;;;;;;7.35;99.69;97969.03;5072307;28;20032;-62
2021/11/22 04:53:58;;;;;;;4.70;2.08;;;;;;;7.32;99.60;97980.47;5092330;28;20066;-63
2021/11/22 04:56:24;;;;;;;3.90;1.75;;;;;;;7.28;99.37;97957.63;5096252;28;20066;-62
2021/11/22 04:58:49;;;;;;;5.22;2.30;;;;;;;7.31;98.49;97962.50;5095170;28;20528;-62
2021/11/22 05:01:15;;;;;;;4.88;2.40;;;;;;;7.29;99.61;97965.25;5072080;28;20025;-63
2021/11/22 05:03:40;;;;;;;4.97;2.20;;;;;;;7.41;99.26;97978.84;5095726;28;20063;-62
2021/11/22 05:06:06;;;;;;;5.38;2.67;;;;;;;7.44;99.50;97972.56;5069890;28;20136;-62
2021/11/22 05:08:31;;;;;;;4.30;2.00;;;;;;;7.44;99.18;97975.94;5096829;28;20093;-62
2021/11/22 05:10:57;;;;;;;6.38;2.38;;;;;;;7.37;99.90;97976.66;5070200;28;20035;-62
2021/11/22 05:13:22;;;;;;;4.95;2.00;;;;;;;7.37;99.72;97987.00;5078625;28;20047;-62
2021/11/22 05:15:49;;;;;;;4.70;2.08;;;;;;;7.19;99.69;97966.22;5070598;28;20498;-61
2021/11/22 05:18:15;;;;;;;4.93;1.90;;;;;;;7.38;100.00;97992.03;5069626;28;20067;-62
2021/11/22 05:20:42;;;;;;;4.80;2.17;;;;;;;7.34;99.48;97982.94;5076845;28;20028;-62
2021/11/22 05:23:09;;;;;;;5.90;2.60;;;;;;;7.05;99.53;97955.34;5096499;28;20039;-62
2021/11/22 05:25:35;;;;;;;5.07;2.33;;;;;;;7.34;100.00;98001.03;5057811;28;20032;-61
2021/11/22 05:28:01;;;;;;;5.53;2.30;;;;;;;7.03;99.12;97952.09;5076463;28;20023;-61
2021/11/22 05:30:26;;;;;;;5.72;2.50;;;;;;;7.23;99.54;97996.84;5073373;28;20040;-61
2021/11/22 05:32:58;;;;;;;4.80;2.30;;;;;;;6.96;99.30;97948.44;5102653;27;20049;-61
2021/11/22 05:35:25;;;;;;;4.38;2.10;;;;;;;7.27;99.99;97998.19;5077010;28;20027;-62
2021/11/22 05:37:50;;;;;;;4.82;1.98;;;;;;;7.21;99.60;97980.66;5106991;27;20027;-61
2021/11/22 05:40:16;;;;;;;5.00;2.38;;;;;;;7.32;99.29;97988.25;5070276;28;20034;-61
2021/11/22 05:42:41;;;;;;;4.43;2.22;;;;;;;7.31;99.09;97998.72;5087865;28;20027;-61
2021/11/22 05:45:07;;;;;;;4.90;2.47;;;;;;;7.25;99.36;98007.84;5086877;28;20136;-61
2021/11/22 05:47:33;;;;;;;4.88;2.50;;;;;;;7.28;99.00;98001.56;5071348;28;20042;-61
2021/11/22 05:50:05;;;;;;;5.28;3.00;;;;;;;7.29;99.51;97992.88;5071924;28;20039;-61
2021/11/22 05:52:34;;;;;;;6.65;4.13;;;;;;;7.31;99.31;97991.78;5075185;28;20024;-62
2021/11/22 05:55:00;;;;;;;6.60;3.42;;;;;;;7.34;99.42;98006.22;5096617;27;20028;-61
2021/11/22 05:57:25;;;;;;;6.70;3.75;;;;;;;7.32;100.00;98016.69;5075437;27;20635;-61
2021/11/22 05:59:51;;;;;;;6.05;3.10;;;;;;;7.05;100.00;97968.28;5079613;28;20107;-61
2021/11/22 06:02:16;;;;;;;6.57;2.88;;;;;;;7.35;99.06;98015.59;5071896;28;20057;-62
2021/11/22 06:04:42;;;;;;;6.07;2.67;;;;;;;7.27;100.00;98007.72;5098432;27;20130;-62
2021/11/22 06:07:08;;;;;;;4.90;2.40;;;;;;;7.34;100.00;98013.97;5116581;27;20067;-62
2021/11/22 06:09:34;;;;;;;5.55;2.50;;;;;;;7.36;99.72;98025.00;5073427;27;20501;-61
2021/11/22 06:12:00;;;;;;;7.93;2.58;;;;;;;7.35;100.00;98025.94;5096046;27;20034;-62
2021/11/22 06:14:25;;;;;;;6.68;3.00;;;;;;;7.32;100.00;98015.88;5075013;27;20023;-61
2021/11/22 06:16:51;;;;;;;5.72;2.63;;;;;;;7.41;100.00;98030.56;5068379;28;20062;-62
2021/11/22 06:19:16;;;;;;;5.15;2.60;;;;;;;7.36;100.00;98037.13;5091921;27;20118;-62
2021/11/22 06:21:42;;;;;;;5.28;2.80;;;;;;;7.31;99.26;98022.81;5096724;27;20679;-62
2021/11/22 06:24:07;;;;;;;5.20;2.72;;;;;;;7.46;99.36;98038.72;5095892;28;20027;-63
2021/11/22 06:26:33;;;;;;;5.20;2.85;;;;;;;7.44;100.00;98037.22;5068561;28;20535;-62
2021/11/22 06:28:59;;;;;;;5.32;2.75;;;;;;;7.51;100.00;98046.06;5068832;28;20099;-61
2021/11/22 06:31:24;;;;;;;7.38;2.95;;;;;;;7.41;100.00;98035.75;5059152;28;20493;-61
2021/11/22 06:33:50;;;;;;;6.30;3.15;;;;;;;7.50;100.00;98050.44;5107964;27;20066;-62
2021/11/22 06:36:15;;;;;;;7.55;2.90;;;;;;;7.48;100.00;98048.91;5067852;28;20028;-63
2021/11/22 06:38:41;;;;;;;5.93;2.88;;;;;;;7.48;99.82;98057.53;5093196;27;20055;-62
2021/11/22 06:41:06;;;;;;;6.05;2.72;;;;;;;7.32;100.00;98026.22;5100531;27;20572;-62
2021/11/22 06:43:32;;;;;;;6.68;3.00;;;;;;;7.52;100.00;98065.81;5076558;28;20103;-62
2021/11/22 06:45:57;;;;;;;6.03;3.03;;;;;;;7.49;100.00;98073.84;5081648;27;20063;-63
2021/11/22 06:48:22;;;;;;;6.32;3.22;;;;;;;7.53;100.00;98061.44;5099762;27;20028;-62
2021/11/22 06:50:48;;;;;;;6.85;2.90;;;;;;;7.37;100.00;98055.06;5067676;27;20043;-62
2021/11/22 06:53:13;;;;;;;6.55;2.80;;;;;;;7.49;100.00;98069.47;5055428;28;20089;-63
2021/11/22 06:55:39;;;;;;;6.55;3.20;;;;;;;7.47;100.00;98081.75;5076912;28;20042;-62
2021/11/22 06:58:04;;;;;;;5.15;2.60;;;;;;;7.44;100.00;98079.41;5070098;28;20043;-62
2021/11/22 07:00:30;;;;;;;6.40;2.95;;;;;;;7.48;100.00;98085.13;5074111;28;20375;-62
2021/11/22 07:02:55;;;;;;;7.63;2.97;;;;;;;7.44;100.00;98086.38;5086216;27;20534;-63
2021/11/22 07:05:23;;;;;;;8.85;3.33;;;;;;;7.50;100.00;98091.81;5096229;27;20107;-62
2021/11/22 07:07:49;;;;;;;6.82;3.38;;;;;;;7.54;100.00;98092.38;5071192;27;20030;-62
2021/11/22 07:10:16;;;;;;;7.28;3.30;;;;;;;7.38;100.00;98067.03;5067725;28;20486;-62
2021/11/22 07:12:42;;;;;;;20.63;5.13;;;;;;;7.55;100.00;98096.56;5091407;27;20028;-62
2021/11/22 07:15:08;;;;;;;10.00;4.03;;;;;;;7.44;100.00;98076.84;5072241;28;20074;-62
2021/11/22 07:17:33;;;;;;;7.55;3.90;;;;;;;7.34;100.00;98057.94;5068977;28;20018;-62
2021/11/22 07:19:59;;;;;;;8.60;3.92;;;;;;;7.30;100.00;98059.16;5100998;27;20036;-62
2021/11/22 07:22:25;;;;;;;8.35;3.63;;;;;;;7.57;100.00;98109.38;5093209;27;20024;-61
2021/11/22 07:24:51;;;;;;;5.95;3.05;;;;;;;7.57;100.00;98109.38;5065122;28;20058;-62
2021/11/22 07:27:18;;;;;;;6.88;2.85;;;;;;;7.61;100.00;98102.97;5087509;28;20020;-61
2021/11/22 07:29:45;;;;;;;6.30;3.00;;;;;;;7.58;100.00;98108.44;5075926;27;20012;-61
2021/11/22 07:32:11;;;;;;;6.40;2.95;;;;;;;7.59;100.00;98113.44;5093639;27;20023;-61
2021/11/22 07:34:36;;;;;;;5.75;3.22;;;;;;;7.63;100.00;98116.56;5077647;28;20674;-62
2021/11/22 07:37:02;;;;;;;7.38;3.22;;;;;;;7.65;100.00;98114.69;5090585;28;20028;-61
2021/11/22 07:39:28;;;;;;;6.13;3.50;;;;;;;7.61;100.00;98102.97;5062264;28;20042;-62
2021/11/22 07:41:56;;;;;;;8.63;3.35;;;;;;;7.41;99.95;98073.69;5091150;27;20012;-62
2021/11/22 07:44:23;;;;;;;6.82;3.80;;;;;;;7.61;100.00;98110.72;5094033;27;20081;-61
2021/11/22 07:46:48;;;;;;;6.78;3.83;;;;;;;7.68;100.00;98117.81;5079916;28;20099;-62
2021/11/22 07:49:14;;;;;;;9.05;4.35;;;;;;;7.72;100.00;98120.09;5088714;27;20035;-61
2021/11/22 07:51:41;;;;;;;8.65;4.57;;;;;;;7.72;100.00;98112.34;5080937;28;20031;-61
2021/11/22 07:54:06;;;;;;;10.45;5.38;;;;;;;7.74;100.00;98115.59;5086490;27;20097;-62
2021/11/22 07:56:32;;;;;;;7.78;4.35;;;;;;;7.66;100.00;98122.28;5077417;27;20748;-61
2021/11/22 07:58:57;;;;;;;6.90;3.90;;;;;;;7.57;100.00;98112.75;5055530;28;20031;-61
2021/11/22 08:01:23;;;;;;;8.70;3.28;;;;;;;7.56;100.00;98131.03;5079920;27;20110;-61
2021/11/22 08:03:49;;;;;;;7.25;3.70;;;;;;;7.58;100.00;98135.09;5099273;27;20023;-61
2021/11/22 08:06:16;;;;;;;7.65;3.28;;;;;;;7.67;100.00;98143.81;5093056;28;20028;-60
2021/11/22 08:08:41;;;;;;;6.75;3.50;;;;;;;7.65;100.00;98146.53;5097949;27;20032;-61
2021/11/22 08:12:02;;;;;;;6.85;3.50;;;;;;;7.55;100.00;98131.97;5070204;28;20739;-61
2021/11/22 08:13:53;;;;;;;5.95;2.95;;;;;;;7.73;100.00;98153.63;5091056;27;20130;-61
2021/11/22 08:16:20;;;;;;;6.43;3.33;;;;;;;7.68;100.00;98148.03;5093827;27;20426;-61
2021/11/22 08:18:46;;;;;;;10.05;3.47;;;;;;;7.79;100.00;98153.06;5086473;28;20027;-61
2021/11/22 08:21:12;;;;;;;7.45;4.05;;;;;;;7.69;100.00;98162.63;5064649;27;20024;-61
2021/11/22 08:23:38;;;;;;;7.13;3.88;;;;;;;7.54;100.00;98118.25;5101607;27;20036;-62
2021/11/22 08:26:05;;;;;;;7.43;3.60;;;;;;;7.80;100.00;98156.47;5085456;27;20019;-60
2021/11/22 08:28:30;;;;;;;7.10;3.97;;;;;;;7.39;100.00;98114.41;5077552;28;20054;-61
2021/11/22 08:30:56;;;;;;;8.70;4.93;;;;;;;7.59;100.00;98149.66;5076277;28;20450;-61
2021/11/22 08:33:21;;;;;;;8.45;4.00;;;;;;;7.73;100.00;98153.63;5069959;28;20495;-61
2021/11/22 08:35:47;;;;;;;7.70;4.45;;;;;;;7.50;100.00;98127.19;5099048;27;20023;-60
2021/11/22 08:38:13;;;;;;;7.70;3.70;;;;;;;7.68;100.00;98153.22;5081507;28;20020;-61
2021/11/22 08:40:42;;;;;;;7.82;3.80;;;;;;;7.70;100.00;98152.13;5076162;28;20023;-60
2021/11/22 08:43:14;;;;;;;8.87;4.80;;;;;;;7.50;100.00;98122.88;5098623;28;20096;-61
2021/11/22 08:45:40;;;;;;;12.82;8.60;;;;;;;7.49;100.00;98121.22;5091180;28;20568;-60
2021/11/22 08:48:06;;;;;;;6.57;3.80;;;;;;;7.63;100.00;98152.78;5061153;28;20482;-60
2021/11/22 08:50:32;;;;;;;6.20;3.88;;;;;;;7.49;100.00;98144.50;5094760;28;20508;-60
2021/11/22 08:52:57;;;;;;;6.40;3.97;;;;;;;7.69;100.00;98180.72;5095083;28;20031;-61
2021/11/22 08:55:23;;;;;;;8.00;4.05;;;;;;;7.59;100.00;98159.22;5056268;28;20050;-61
2021/11/22 08:57:49;;;;;;;6.55;3.97;;;;;;;7.57;100.00;98132.66;5068231;28;20036;-61
2021/11/22 09:00:24;;;;;;;8.00;4.15;;;;;;;7.85;100.00;98183.59;5072698;28;20608;-61
2021/11/22 09:02:50;;;;;;;8.40;4.50;;;;;;;7.81;100.00;98171.03;5095559;28;20024;-61
2021/11/22 09:05:15;;;;;;;7.65;4.45;;;;;;;7.93;100.00;98184.66;5079522;28;20500;-61
2021/11/22 09:07:42;;;;;;;8.48;4.50;;;;;;;7.95;100.00;98183.56;5074631;28;20074;-61
2021/11/22 09:10:07;;;;;;;6.75;4.18;;;;;;;8.01;100.00;98183.03;5104541;27;20113;-61
2021/11/22 09:12:33;;;;;;;8.30;4.90;;;;;;;7.76;100.00;98150.75;5055776;28;20450;-61
2021/11/22 09:14:58;;;;;;;8.88;5.40;;;;;;;7.78;100.00;98161.78;5106429;27;20094;-61
2021/11/22 09:17:25;;;;;;;9.27;4.75;;;;;;;8.07;100.00;98199.78;5078072;28;20114;-61
2021/11/22 09:19:50;;;;;;;8.02;4.90;;;;;;;8.14;100.00;98202.59;5078906;28;20089;-61
2021/11/22 09:22:15;;;;;;;8.10;5.10;;;;;;;8.13;100.00;98201.00;5095474;27;20040;-61
2021/11/22 09:24:42;;;;;;;8.45;5.03;;;;;;;8.07;100.00;98192.00;5094472;27;20040;-61
2021/11/22 09:27:08;;;;;;;10.23;5.63;;;;;;;8.16;100.00;98198.94;5078236;28;20042;-62
2021/11/22 09:29:34;;;;;;;8.57;5.20;;;;;;;8.16;100.00;98204.13;5073026;27;20019;-61
2021/11/22 09:32:00;;;;;;;8.95;5.53;;;;;;;8.07;99.22;98181.66;5079011;28;20071;-61
2021/11/22 09:34:25;;;;;;;9.90;4.97;;;;;;;8.22;99.38;98207.94;5069063;27;20032;-61
2021/11/22 09:36:51;;;;;;;10.73;5.63;;;;;;;8.21;99.63;98204.53;5073882;28;20508;-61
2021/11/22 09:39:18;;;;;;;13.52;5.68;;;;;;;8.00;100.00;98175.41;5076135;28;20472;-62
2021/11/22 09:41:46;;;;;;;13.75;5.97;;;;;;;8.01;100.00;98175.25;5079298;28;20035;-61
2021/11/22 09:44:12;;;;;;;11.15;6.30;;;;;;;7.99;100.00;98155.63;5093118;27;20108;-61
2021/11/22 09:46:37;;;;;;;10.85;5.80;;;;;;;8.31;100.00;98206.28;5076237;28;20023;-61
2021/11/22 09:49:04;;;;;;;8.35;5.40;;;;;;;8.41;98.11;98201.88;5072109;28;20023;-60
2021/11/22 09:51:30;;;;;;;9.30;5.50;;;;;;;8.49;98.04;98211.56;5071692;28;20236;-61
2021/11/22 09:53:56;;;;;;;10.00;5.72;;;;;;;8.47;98.55;98214.31;5074021;28;20032;-61
2021/11/22 09:56:22;;;;;;;10.05;4.90;;;;;;;8.43;97.17;98208.59;5072280;28;20470;-60
2021/11/22 09:58:47;;;;;;;8.70;5.68;;;;;;;8.29;96.99;98209.00;5073796;27;20110;-61
2021/11/22 10:01:15;;;;;;;7.72;4.72;;;;;;;8.32;97.07;98213.06;5073464;27;20059;-61
2021/11/22 10:03:41;;;;;;;8.40;5.38;;;;;;;8.34;97.23;98213.75;5075182;28;20058;-60
2021/11/22 10:06:07;;;;;;;8.63;5.25;;;;;;;8.29;97.20;98209.00;5068335;28;20566;-61
2021/11/22 10:08:40;;;;;;;7.57;4.55;;;;;;;8.20;98.16;98205.47;5077419;28;20028;-61
2021/11/22 10:11:08;;;;;;;7.53;4.70;;;;;;;8.17;97.47;98205.72;5070569;28;20032;-61
2021/11/22 10:13:36;;;;;;;8.90;5.32;;;;;;;8.35;97.70;98205.03;5090123;27;20023;-61
2021/11/22 10:16:08;;;;;;;9.60;4.97;;;;;;;8.41;97.45;98194.91;5067926;28;20020;-60
2021/11/22 10:18:38;;;;;;;9.18;5.40;;;;;;;8.42;96.67;98198.38;5081790;28;20027;-61
2021/11/22 10:21:06;;;;;;;8.63;5.00;;;;;;;8.33;96.72;98197.41;5078241;27;20027;-61
2021/11/22 10:23:32;;;;;;;8.48;4.90;;;;;;;8.44;97.19;98196.44;5075182;27;20016;-62
2021/11/22 10:25:58;;;;;;;8.13;5.10;;;;;;;8.43;95.69;98182.69;5072257;28;20062;-61
2021/11/22 10:28:27;;;;;;;7.30;4.82;;;;;;;8.46;96.11;98184.97;5071846;28;20107;-61
2021/11/22 10:30:54;;;;;;;7.32;4.45;;;;;;;8.52;96.70;98193.94;5089781;28;20084;-60
2021/11/22 10:33:22;;;;;;;9.18;4.70;;;;;;;8.46;96.46;98181.56;5103319;27;20031;-61
2021/11/22 10:35:51;;;;;;;8.40;4.43;;;;;;;8.48;95.96;98194.38;5073430;28;20391;-61
2021/11/22 10:38:25;;;;;;;6.88;3.88;;;;;;;8.50;95.49;98190.69;5077286;27;20382;-59
2021/11/22 10:41:00;;;;;;;6.57;3.72;;;;;;;8.43;94.27;98198.22;5083680;28;20062;-59
2021/11/22 10:43:42;;;;;;;7.28;4.30;;;;;;;8.41;94.96;98186.31;5093295;27;20122;-61
2021/11/22 10:46:10;;;;;;;7.60;4.32;;;;;;;8.47;94.68;98178.03;5092468;27;20093;-60
2021/11/22 10:48:37;;;;;;;6.82;4.28;;;;;;;8.51;95.33;98192.34;5064078;28;20101;-60
2021/11/22 10:51:16;;;;;;;7.38;4.18;;;;;;;8.46;96.09;98173.78;5090566;27;20714;-61
2021/11/22 10:54:00;;;;;;;7.13;3.90;;;;;;;8.38;95.65;98152.94;5087399;27;20082;-61
2021/11/22 10:56:27;;;;;;;6.28;3.58;;;;;;;8.68;95.24;98182.97;5087304;27;20114;-61
2021/11/22 10:59:07;;;;;;;5.90;2.92;;;;;;;8.35;93.62;98140.25;5102700;27;20020;-61
2021/11/22 11:01:38;;;;;;;;;;;;;;;8.60;93.61;98178.53;5072389;28;20285;-61
2021/11/22 11:04:09;;;;;;;5.57;3.05;;;;;;;8.65;95.30;98186.69;5082867;28;19981;-61
2021/11/22 11:06:53;;;;;;;6.00;3.30;;;;;;;8.71;95.58;98182.72;5042068;28;20074;-59
2021/11/22 11:09:21;;;;;;;7.18;3.72;;;;;;;8.75;95.35;98180.66;5086977;27;20027;-62
2021/11/22 11:11:48;;;;;;;6.50;3.70;;;;;;;8.43;95.04;98128.28;5087923;27;20462;-61
2021/11/22 11:14:15;;;;;;;6.00;3.40;;;;;;;8.46;94.98;98127.97;5053188;28;20082;-60
2021/11/22 11:16:42;;;;;;;6.10;3.80;;;;;;;8.74;94.11;98163.44;5067944;28;20035;-61
2021/11/22 11:19:14;;;;;;;5.82;3.65;;;;;;;8.83;95.25;98178.13;5070310;27;20062;-61
2021/11/22 11:21:46;;;;;;;6.20;4.05;;;;;;;8.91;96.46;98170.47;5076722;27;20028;-60
2021/11/22 11:24:13;;;;;;;7.00;4.30;;;;;;;8.87;95.65;98170.88;5086850;27;20357;-60
2021/11/22 11:26:40;;;;;;;7.10;4.05;;;;;;;8.95;94.99;98171.81;5068484;28;20032;-61
2021/11/22 11:29:07;;;;;;;7.40;4.32;;;;;;;8.94;95.82;98171.94;5074711;28;21801;-60
2021/11/22 11:31:34;;;;;;;7.70;4.40;;;;;;;9.01;95.60;98176.41;5062817;27;20293;-60
2021/11/22 11:34:03;;;;;;;7.38;4.60;;;;;;;9.07;95.71;98163.81;5068100;28;20572;-60